Time;durP1;ratioP1;P1;durP2;ratioP2;P2;SDS_P1;SDS_P2;PMS_P1;PMS_P2;Temp;Humidity;BMP_temperature;BMP_pressure;BME280_temperature;BME280_humidity;BME280_pressure;Samples;Min_cycle;Max_cycle;Signal;HPM_P1;HPM_P2
2022/07/31 00:00:44;;;;;;;2.50;2.07;;;23.70;65.50;;;;;;5065840;28;20509;-78
2022/07/31 00:03:12;;;;;;;1.93;1.83;;;23.70;66.80;;;;;;5066945;28;20449;-81
2022/07/31 00:05:41;;;;;;;1.70;1.60;;;23.70;68.50;;;;;;5067437;28;20515;-81
2022/07/31 00:08:09;;;;;;;3.90;2.10;;;23.70;70.40;;;;;;5062620;28;20467;-81
2022/07/31 00:10:37;;;;;;;4.33;1.90;;;23.60;71.30;;;;;;5066359;28;20519;-81
2022/07/31 00:13:07;;;;;;;1.60;1.50;;;23.60;68.40;;;;;;5067458;28;21076;-82
2022/07/31 00:15:37;;;;;;;2.43;1.73;;;23.60;69.40;;;;;;5069309;28;20507;-81
2022/07/31 00:18:07;;;;;;;2.33;1.67;;;23.60;67.70;;;;;;5071868;28;20504;-82
2022/07/31 00:20:36;;;;;;;4.00;1.50;;;23.60;70.20;;;;;;5071583;28;20457;-81
2022/07/31 00:23:04;;;;;;;1.63;1.50;;;23.50;68.40;;;;;;5067813;28;20510;-81
2022/07/31 00:25:32;;;;;;;2.63;2.43;;;23.50;70.40;;;;;;5065481;28;20445;-82
2022/07/31 00:28:00;;;;;;;1.97;1.80;;;23.50;69.70;;;;;;5070789;28;20534;-82
2022/07/31 00:30:30;;;;;;;1.50;1.40;;;23.50;69.90;;;;;;5069997;28;20989;-83
2022/07/31 00:32:58;;;;;;;1.77;1.67;;;23.50;67.70;;;;;;5064211;28;20489;-82
2022/07/31 00:35:26;;;;;;;1.80;1.70;;;23.50;69.40;;;;;;5069169;28;20512;-82
2022/07/31 00:37:54;;;;;;;2.10;1.93;;;23.50;72.60;;;;;;5068526;28;20482;-82
2022/07/31 00:40:47;;;;;;;1.97;1.70;;;23.50;71.50;;;;;;5071322;28;21060;-82
2022/07/31 00:43:17;;;;;;;1.83;1.73;;;23.50;71.60;;;;;;5065992;28;20500;-81
2022/07/31 00:45:47;;;;;;;2.00;1.90;;;23.50;72.90;;;;;;5068524;28;20460;-80
2022/07/31 00:48:26;;;;;;;2.23;2.03;;;23.50;71.90;;;;;;5068721;28;20583;-81
2022/07/31 00:50:55;;;;;;;1.70;1.60;;;23.50;69.20;;;;;;5068962;28;20462;-80
2022/07/31 00:53:23;;;;;;;1.90;1.80;;;23.50;71.90;;;;;;5066156;28;20507;-81
2022/07/31 00:55:51;;;;;;;1.90;1.80;;;23.50;72.10;;;;;;5070342;28;21165;-80
2022/07/31 00:58:20;;;;;;;3.93;2.00;;;23.50;91.70;;;;;;5068776;28;20474;-81
2022/07/31 01:00:49;;;;;;;2.70;1.80;;;23.50;74.00;;;;;;5071054;28;20450;-81
2022/07/31 01:03:18;;;;;;;3.03;1.80;;;23.50;75.80;;;;;;5068743;28;20470;-80
2022/07/31 01:05:46;;;;;;;2.67;1.93;;;23.50;73.70;;;;;;5069934;28;20990;-82
2022/07/31 01:08:15;;;;;;;2.23;2.00;;;23.50;83.90;;;;;;5069770;28;20466;-81
2022/07/31 01:10:52;;;;;;;2.10;2.00;;;23.50;76.00;;;;;;5066336;28;20452;-81
2022/07/31 01:13:35;;;;;;;1.90;1.80;;;23.40;75.60;;;;;;5066999;28;20469;-80
2022/07/31 01:16:07;;;;;;;2.60;1.80;;;23.40;75.20;;;;;;5068360;28;20457;-81
2022/07/31 01:18:37;;;;;;;1.90;1.80;;;23.30;73.20;;;;;;5066037;28;20467;-81
2022/07/31 01:21:08;;;;;;;1.80;1.70;;;23.30;74.80;;;;;;5070849;28;21025;-81
2022/07/31 01:23:50;;;;;;;1.80;1.70;;;23.30;74.90;;;;;;5068594;28;20512;-80
2022/07/31 01:26:41;;;;;;;1.87;1.70;;;23.30;73.30;;;;;;5067813;28;20547;-81
2022/07/31 01:29:18;;;;;;;1.63;1.53;;;23.20;72.50;;;;;;5066188;28;20465;-83
2022/07/31 01:31:52;;;;;;;2.10;1.90;;;23.20;73.60;;;;;;5068734;28;20443;-81
2022/07/31 01:34:25;;;;;;;1.87;1.77;;;23.20;74.40;;;;;;5068143;28;20473;-81
2022/07/31 01:37:00;;;;;;;2.90;1.77;;;23.20;92.10;;;;;;5069060;28;20461;-82
2022/07/31 01:39:32;;;;;;;2.17;1.97;;;23.20;75.20;;;;;;5069598;28;20486;-81
2022/07/31 01:42:04;;;;;;;2.20;2.00;;;23.10;75.80;;;;;;5069787;28;20450;-80
2022/07/31 01:44:41;;;;;;;2.90;2.20;;;23.10;76.30;;;;;;5068121;28;20890;-81
2022/07/31 01:47:12;;;;;;;2.60;2.40;;;23.20;78.50;;;;;;5065691;28;21032;-80
2022/07/31 01:49:43;;;;;;;2.27;2.07;;;23.10;78.70;;;;;;5067162;28;20474;-81
2022/07/31 01:52:13;;;;;;;2.47;2.33;;;23.20;78.80;;;;;;5063477;28;20507;-81
2022/07/31 01:54:43;;;;;;;2.53;2.10;;;23.20;80.40;;;;;;5097386;28;20547;-81
2022/07/31 01:57:12;;;;;;;1.93;1.83;;;23.10;79.10;;;;;;5063138;28;21003;-81
2022/07/31 01:59:49;;;;;;;2.53;2.40;;;23.20;80.30;;;;;;5067800;28;20485;-81
2022/07/31 02:02:22;;;;;;;2.73;2.53;;;23.10;79.70;;;;;;5068566;28;20491;-81
2022/07/31 02:04:51;;;;;;;3.03;2.67;;;23.10;94.30;;;;;;5067855;28;20539;-81
2022/07/31 02:07:20;;;;;;;2.50;2.40;;;23.10;80.40;;;;;;5066771;28;20447;-81
2022/07/31 02:09:50;;;;;;;2.10;2.00;;;23.00;81.30;;;;;;5066646;28;20473;-83
2022/07/31 02:12:27;;;;;;;3.53;2.43;;;23.00;78.80;;;;;;5066860;28;20447;-81
2022/07/31 02:15:02;;;;;;;2.37;2.17;;;22.90;79.40;;;;;;5067287;28;21119;-80
2022/07/31 02:17:31;;;;;;;2.40;2.20;;;22.90;82.50;;;;;;5065317;28;20450;-81
2022/07/31 02:20:01;;;;;;;2.10;2.00;;;22.80;79.70;;;;;;5062881;28;20459;-81
2022/07/31 02:22:29;;;;;;;2.50;2.30;;;22.90;80.00;;;;;;5060595;28;20974;-81
2022/07/31 02:24:58;;;;;;;1.70;1.60;;;22.80;83.50;;;;;;5067695;28;20458;-82
2022/07/31 02:27:28;;;;;;;2.40;2.20;;;22.80;82.30;;;;;;5064785;28;20498;-80
2022/07/31 02:30:18;;;;;;;2.67;2.47;;;22.80;82.30;;;;;;5068025;28;20528;-80
2022/07/31 02:32:48;;;;;;;2.70;2.13;;;22.70;81.10;;;;;;5061390;28;20822;-80
2022/07/31 02:35:18;;;;;;;2.20;2.10;;;22.60;81.00;;;;;;5067691;28;20504;-81
2022/07/31 02:37:50;;;;;;;4.23;2.17;;;22.60;81.00;;;;;;5063763;28;20500;-80
2022/07/31 02:40:19;;;;;;;5.43;2.50;;;22.60;83.00;;;;;;5070152;28;20453;-80
2022/07/31 02:42:48;;;;;;;2.50;2.30;;;22.60;83.70;;;;;;5066091;28;20460;-81
2022/07/31 02:45:19;;;;;;;1.90;1.67;;;22.60;83.00;;;;;;5067031;28;20471;-82
2022/07/31 02:47:47;;;;;;;2.87;2.67;;;22.50;82.60;;;;;;5067814;28;20471;-81
2022/07/31 02:50:17;;;;;;;2.67;2.47;;;22.50;85.90;;;;;;5069785;28;22158;-81
2022/07/31 02:52:47;;;;;;;2.57;2.37;;;22.50;82.90;;;;;;5069311;28;20452;-80
2022/07/31 02:55:17;;;;;;;2.47;2.27;;;22.40;87.40;;;;;;5067803;28;20498;-80
2022/07/31 02:57:46;;;;;;;2.50;2.30;;;22.40;84.30;;;;;;5066913;28;20457;-79
2022/07/31 03:00:22;;;;;;;2.13;2.03;;;22.40;86.50;;;;;;5065993;28;20453;-79
2022/07/31 03:02:51;;;;;;;2.50;2.30;;;22.40;85.40;;;;;;5074512;28;20559;-79
2022/07/31 03:05:19;;;;;;;2.73;2.53;;;22.40;89.60;;;;;;5067620;28;20452;-79
2022/07/31 03:07:47;;;;;;;3.33;2.23;;;22.40;90.00;;;;;;5084586;28;20945;-79
2022/07/31 03:10:15;;;;;;;2.50;2.30;;;22.30;89.20;;;;;;5067424;28;20463;-80
2022/07/31 03:12:48;;;;;;;2.83;2.57;;;22.30;90.70;;;;;;5069420;28;20443;-80
2022/07/31 03:15:20;;;;;;;2.90;2.60;;;22.30;89.70;;;;;;5064027;28;20488;-80
2022/07/31 03:17:50;;;;;;;2.47;2.27;;;22.30;89.30;;;;;;5068610;28;20520;-81
2022/07/31 03:20:18;;;;;;;2.83;2.60;;;22.30;89.60;;;;;;5068812;28;20981;-79
2022/07/31 03:22:46;;;;;;;2.40;2.20;;;22.30;90.20;;;;;;5071492;28;20506;-81
2022/07/31 03:25:15;;;;;;;2.33;2.00;;;22.20;98.60;;;;;;5068423;28;20446;-81
2022/07/31 03:27:49;;;;;;;2.10;1.90;;;22.20;87.10;;;;;;5067363;28;20470;-82
2022/07/31 03:30:25;;;;;;;3.07;2.47;;;22.20;87.00;;;;;;5066376;28;20979;-81
2022/07/31 03:32:54;;;;;;;2.13;2.03;;;22.20;86.20;;;;;;5062689;28;20954;-80
2022/07/31 03:35:22;;;;;;;5.60;2.40;;;22.10;87.80;;;;;;5065143;28;20544;-82
2022/07/31 03:37:51;;;;;;;2.00;1.90;;;22.10;89.00;;;;;;5066410;28;20475;-80
2022/07/31 03:40:20;;;;;;;2.40;2.20;;;22.00;89.00;;;;;;5068111;28;20447;-80
2022/07/31 03:42:49;;;;;;;2.20;2.10;;;22.00;88.60;;;;;;5063660;28;20443;-81
2022/07/31 03:45:19;;;;;;;2.90;2.63;;;22.00;88.20;;;;;;5063687;28;20465;-81
2022/07/31 03:47:49;;;;;;;2.47;2.37;;;22.10;90.10;;;;;;5065790;28;20470;-81
2022/07/31 03:50:17;;;;;;;2.27;2.07;;;22.00;89.60;;;;;;5068552;28;20466;-80
2022/07/31 03:52:47;;;;;;;2.23;2.03;;;22.00;90.30;;;;;;5070235;28;20461;-81
2022/07/31 03:55:15;;;;;;;2.40;2.20;;;22.00;90.20;;;;;;5069689;28;20474;-81
2022/07/31 03:57:44;;;;;;;3.10;2.43;;;22.00;90.90;;;;;;5069090;28;20458;-81
2022/07/31 04:00:16;;;;;;;2.27;2.17;;;21.90;90.20;;;;;;5069296;28;20458;-81
2022/07/31 04:02:45;;;;;;;3.60;2.43;;;21.90;90.10;;;;;;5068561;28;20451;-81
2022/07/31 04:05:15;;;;;;;2.27;2.07;;;21.90;91.30;;;;;;5070780;28;20442;-80
2022/07/31 04:07:43;;;;;;;2.57;2.43;;;21.90;92.40;;;;;;5068961;28;20455;-81
2022/07/31 04:10:11;;;;;;;2.63;2.00;;;21.90;92.50;;;;;;5070770;28;20958;-80
2022/07/31 04:12:39;;;;;;;2.37;1.97;;;21.90;92.50;;;;;;5069967;28;20866;-80
2022/07/31 04:15:10;;;;;;;2.93;2.10;;;21.90;92.60;;;;;;5064247;28;20458;-80
2022/07/31 04:17:38;;;;;;;2.17;2.07;;;21.90;90.90;;;;;;5070538;28;20461;-81
2022/07/31 04:20:07;;;;;;;2.53;2.33;;;21.80;93.60;;;;;;5099450;28;20458;-80
2022/07/31 04:22:38;;;;;;;4.10;3.53;;;21.80;91.30;;;;;;5069145;28;20961;-80
2022/07/31 04:25:07;;;;;;;2.67;2.30;;;21.80;91.30;;;;;;5070346;28;20524;-80
2022/07/31 04:27:35;;;;;;;2.10;1.90;;;21.80;91.60;;;;;;5068689;28;20973;-80
2022/07/31 04:30:16;;;;;;;2.20;1.93;;;21.80;92.20;;;;;;5069665;28;20453;-81
2022/07/31 04:32:44;;;;;;;2.03;1.93;;;21.80;92.70;;;;;;5068630;28;20521;-79
2022/07/31 04:35:13;;;;;;;2.27;2.17;;;21.80;94.20;;;;;;5069045;28;20485;-80
2022/07/31 04:37:42;;;;;;;2.40;2.30;;;21.80;94.20;;;;;;5064532;28;20447;-80
2022/07/31 04:40:15;;;;;;;2.33;2.20;;;21.80;94.20;;;;;;5071323;28;20461;-79
2022/07/31 04:42:43;;;;;;;2.80;2.60;;;21.80;94.20;;;;;;5071252;28;20461;-79
2022/07/31 04:45:12;;;;;;;2.70;2.50;;;21.80;96.00;;;;;;5070777;28;20519;-79
2022/07/31 04:47:40;;;;;;;2.47;2.27;;;21.80;95.70;;;;;;5071622;28;20485;-80
2022/07/31 04:50:09;;;;;;;2.10;2.00;;;21.80;97.10;;;;;;5064404;28;20454;-79
2022/07/31 04:52:37;;;;;;;2.37;2.20;;;21.90;96.70;;;;;;5068792;28;20916;-79
2022/07/31 04:55:07;;;;;;;2.53;2.33;;;21.90;98.60;;;;;;5066233;28;20471;-80
2022/07/31 04:57:35;;;;;;;2.33;2.13;;;21.90;97.70;;;;;;5070444;28;20450;-80
2022/07/31 05:00:05;;;;;;;2.53;2.33;;;21.90;98.40;;;;;;5062809;28;20470;-81
2022/07/31 05:02:33;;;;;;;2.93;2.70;;;21.90;98.10;;;;;;5069650;28;20514;-80
2022/07/31 05:05:06;;;;;;;2.90;2.70;;;21.90;99.70;;;;;;5069143;28;20457;-80
2022/07/31 05:07:34;;;;;;;2.40;2.20;;;21.90;96.80;;;;;;5069352;28;20439;-80
2022/07/31 05:10:03;;;;;;;2.93;2.43;;;21.90;97.90;;;;;;5067222;28;20512;-80
2022/07/31 05:12:32;;;;;;;3.33;2.57;;;22.00;99.80;;;;;;5068657;28;20501;-80
2022/07/31 05:15:01;;;;;;;2.87;2.57;;;22.00;99.90;;;;;;5069443;28;20564;-79
2022/07/31 05:17:29;;;;;;;2.40;2.30;;;22.10;99.90;;;;;;5070977;28;20454;-77
2022/07/31 05:19:57;;;;;;;2.60;2.40;;;22.10;99.70;;;;;;5070535;28;20446;-79
2022/07/31 05:22:25;;;;;;;2.80;2.60;;;22.10;99.90;;;;;;5069522;28;20884;-81
2022/07/31 05:24:53;;;;;;;4.03;1.97;;;22.10;99.90;;;;;;5067002;28;20445;-81
2022/07/31 05:27:21;;;;;;;2.80;2.60;;;22.20;99.90;;;;;;5073597;28;20443;-81
2022/07/31 05:29:53;;;;;;;2.10;1.70;;;22.20;99.90;;;;;;5069704;28;20478;-81
2022/07/31 05:32:21;;;;;;;2.23;2.10;;;22.30;99.90;;;;;;5074746;28;20512;-81
2022/07/31 05:34:49;;;;;;;2.57;2.37;;;22.30;99.90;;;;;;5074348;28;20525;-81
2022/07/31 05:37:17;;;;;;;2.37;2.17;;;22.30;99.90;;;;;;5067415;28;20460;-80
2022/07/31 05:39:46;;;;;;;2.80;2.27;;;22.40;99.90;;;;;;5071850;28;20471;-81
2022/07/31 05:42:14;;;;;;;2.43;2.23;;;22.40;99.90;;;;;;5066134;28;20442;-81
2022/07/31 05:44:42;;;;;;;2.67;2.47;;;22.50;99.90;;;;;;5070844;28;20482;-80
2022/07/31 05:47:11;;;;;;;2.83;2.63;;;22.50;99.90;;;;;;5071135;28;20455;-81
2022/07/31 05:49:39;;;;;;;2.17;1.97;;;22.50;99.90;;;;;;5070648;28;20485;-81
2022/07/31 05:52:07;;;;;;;2.73;2.30;;;22.50;99.90;;;;;;5071329;28;20450;-81
2022/07/31 05:54:36;;;;;;;3.23;2.50;;;22.50;99.90;;;;;;5072364;28;20972;-83
2022/07/31 05:57:04;;;;;;;2.50;2.30;;;22.60;99.90;;;;;;5072440;28;21043;-81
2022/07/31 05:59:34;;;;;;;2.80;2.37;;;22.60;99.90;;;;;;5072144;28;20513;-81
2022/07/31 06:02:02;;;;;;;2.87;1.83;;;22.60;99.90;;;;;;5068828;28;20504;-81
2022/07/31 06:04:32;;;;;;;3.50;2.20;;;22.70;99.90;;;;;;5074593;28;20443;-81
2022/07/31 06:07:00;;;;;;;3.60;2.57;;;22.70;99.90;;;;;;5071524;28;20459;-82
2022/07/31 06:09:30;;;;;;;3.30;2.20;;;22.70;99.90;;;;;;5071099;28;20459;-82
2022/07/31 06:11:58;;;;;;;2.50;2.17;;;22.70;99.90;;;;;;5065956;28;21029;-81
2022/07/31 06:14:29;;;;;;;2.50;1.77;;;22.80;99.90;;;;;;5070807;28;20925;-81
2022/07/31 06:16:57;;;;;;;2.33;2.00;;;22.80;99.90;;;;;;5067109;28;20583;-81
2022/07/31 06:19:27;;;;;;;2.30;2.10;;;22.80;99.90;;;;;;5071329;28;20472;-80
2022/07/31 06:21:57;;;;;;;2.10;2.00;;;22.90;99.90;;;;;;5066294;28;20464;-81
2022/07/31 06:24:25;;;;;;;2.30;2.00;;;22.90;99.90;;;;;;5068332;28;20965;-81
2022/07/31 06:26:57;;;;;;;2.70;2.00;;;23.00;99.90;;;;;;5070458;28;21004;-80
2022/07/31 06:29:27;;;;;;;2.10;1.93;;;23.00;99.90;;;;;;5071773;28;20469;-81
2022/07/31 06:32:09;;;;;;;3.07;1.70;;;23.10;99.90;;;;;;5070931;28;20458;-81
2022/07/31 06:34:37;;;;;;;2.10;2.00;;;23.10;99.90;;;;;;5071018;28;20448;-81
2022/07/31 06:37:07;;;;;;;1.70;1.60;;;23.20;99.90;;;;;;5079131;28;20485;-81
2022/07/31 06:39:35;;;;;;;2.00;1.73;;;23.20;99.90;;;;;;5066614;28;20474;-80
2022/07/31 06:42:24;;;;;;;2.50;1.80;;;23.30;99.90;;;;;;5071404;28;20507;-81
2022/07/31 06:44:52;;;;;;;2.07;1.97;;;23.30;99.90;;;;;;5070171;28;20549;-82
2022/07/31 06:47:22;;;;;;;1.70;1.60;;;23.30;99.90;;;;;;5071452;28;21020;-82
2022/07/31 06:49:52;;;;;;;2.40;2.20;;;23.30;99.40;;;;;;5065188;28;20515;-81
2022/07/31 06:52:22;;;;;;;4.80;1.70;;;23.40;99.80;;;;;;5063974;28;20464;-81
2022/07/31 06:54:50;;;;;;;2.73;1.60;;;23.40;99.90;;;;;;5069170;28;20461;-82
2022/07/31 06:57:18;;;;;;;1.73;1.63;;;23.50;99.50;;;;;;5071770;28;21221;-82
2022/07/31 06:59:47;;;;;;;2.07;1.50;;;23.40;99.50;;;;;;5072885;28;20534;-81
2022/07/31 07:02:15;;;;;;;1.70;1.60;;;23.50;99.90;;;;;;5068438;28;20446;-81
2022/07/31 07:04:43;;;;;;;1.80;1.70;;;23.50;99.20;;;;;;5065318;28;20461;-82
2022/07/31 07:07:35;;;;;;;2.00;1.90;;;23.50;99.20;;;;;;5074602;28;20454;-82
2022/07/31 07:10:04;;;;;;;1.90;1.80;;;23.60;99.90;;;;;;5081106;28;20508;-81
2022/07/31 07:12:32;;;;;;;1.73;1.63;;;23.60;98.50;;;;;;5073494;28;21333;-80
2022/07/31 07:15:02;;;;;;;1.53;1.43;;;23.70;99.90;;;;;;5069411;28;21052;-82
2022/07/31 07:17:31;;;;;;;2.70;1.50;;;23.70;99.90;;;;;;5071285;28;20473;-80
2022/07/31 07:19:59;;;;;;;1.93;1.83;;;23.80;99.80;;;;;;5072386;28;20462;-81
2022/07/31 07:22:27;;;;;;;2.00;1.80;;;23.90;99.90;;;;;;5071272;28;20762;-81
2022/07/31 07:25:00;;;;;;;1.67;1.57;;;24.00;99.70;;;;;;5070878;28;20464;-80
2022/07/31 07:27:31;;;;;;;1.63;1.50;;;24.00;99.90;;;;;;5071081;28;20446;-82
2022/07/31 07:30:00;;;;;;;1.97;1.87;;;24.10;99.90;;;;;;5071087;28;20465;-82
2022/07/31 07:32:28;;;;;;;2.07;1.80;;;24.20;99.10;;;;;;5072472;28;20949;-81
2022/07/31 07:34:56;;;;;;;1.50;1.40;;;24.30;98.60;;;;;;5070417;28;20486;-79
2022/07/31 07:37:28;;;;;;;1.63;1.50;;;24.40;98.70;;;;;;5065862;28;20502;-78
2022/07/31 07:39:59;;;;;;;1.50;1.40;;;24.40;95.50;;;;;;5068505;28;20447;-80
2022/07/31 07:42:31;;;;;;;1.90;1.60;;;24.40;96.20;;;;;;5065030;28;20454;-82
2022/07/31 07:44:59;;;;;;;2.57;1.53;;;24.50;95.30;;;;;;5059634;28;20465;-81
2022/07/31 07:47:30;;;;;;;3.00;1.37;;;24.50;97.80;;;;;;5068423;28;20470;-80
2022/07/31 07:50:18;;;;;;;1.40;1.30;;;24.50;96.10;;;;;;5073862;28;20507;-80
2022/07/31 07:52:46;;;;;;;1.60;1.50;;;24.50;95.90;;;;;;5070411;28;21020;-81
2022/07/31 07:55:16;;;;;;;1.60;1.50;;;24.50;94.60;;;;;;5061966;28;20473;-82
2022/07/31 07:57:45;;;;;;;1.40;1.30;;;24.60;98.10;;;;;;5070318;28;20506;-81
2022/07/31 08:00:14;;;;;;;2.00;1.60;;;24.60;96.10;;;;;;5070123;28;20464;-81
2022/07/31 08:02:50;;;;;;;1.60;1.50;;;24.70;96.80;;;;;;5068046;28;20445;-81
2022/07/31 08:05:38;;;;;;;1.50;1.30;;;24.70;98.40;;;;;;5069727;28;20462;-81
2022/07/31 08:08:06;;;;;;;1.30;1.20;;;24.70;97.30;;;;;;5070293;28;20463;-82
2022/07/31 08:10:38;;;;;;;1.70;1.40;;;24.80;97.10;;;;;;5072927;28;20523;-81
2022/07/31 08:13:06;;;;;;;1.97;1.27;;;24.80;97.90;;;;;;5068899;28;20500;-81
2022/07/31 08:15:34;;;;;;;1.53;1.20;;;24.80;98.60;;;;;;5069131;28;21154;-82
2022/07/31 08:18:02;;;;;;;1.90;1.67;;;24.90;99.20;;;;;;5069924;28;20493;-82
2022/07/31 08:20:30;;;;;;;1.10;1.10;;;24.90;97.30;;;;;;5065360;28;20945;-82
2022/07/31 08:22:58;;;;;;;1.33;1.23;;;24.90;96.50;;;;;;5072042;28;20830;-81
2022/07/31 08:25:26;;;;;;;1.30;1.20;;;24.90;97.70;;;;;;5071564;28;20446;-81
2022/07/31 08:28:00;;;;;;;1.50;1.20;;;25.00;97.40;;;;;;5071295;28;20470;-82
2022/07/31 08:30:28;;;;;;;1.80;1.70;;;25.00;99.90;;;;;;5069033;28;20847;-80
2022/07/31 08:32:58;;;;;;;2.50;1.50;;;25.00;97.00;;;;;;5070692;28;20957;-81
2022/07/31 08:35:28;;;;;;;1.20;1.10;;;25.10;96.50;;;;;;5073067;28;20507;-81
2022/07/31 08:37:56;;;;;;;1.33;1.20;;;25.20;96.10;;;;;;5074090;28;20491;-81
2022/07/31 08:40:31;;;;;;;1.30;1.20;;;25.20;95.80;;;;;;5071124;28;20461;-82
2022/07/31 08:43:11;;;;;;;1.30;1.20;;;25.30;97.40;;;;;;5070023;28;20454;-81
2022/07/31 08:46:02;;;;;;;1.40;1.30;;;25.50;96.30;;;;;;5070507;28;20450;-82
2022/07/31 08:48:32;;;;;;;1.20;1.10;;;25.50;95.00;;;;;;5072849;28;20874;-80
2022/07/31 08:51:02;;;;;;;1.13;1.03;;;25.50;95.70;;;;;;5092604;28;21054;-81
2022/07/31 08:53:34;;;;;;;1.30;1.20;;;25.60;94.40;;;;;;5068958;28;21119;-82
2022/07/31 08:56:03;;;;;;;1.07;1.07;;;25.50;94.90;;;;;;5069484;28;20435;-81
2022/07/31 08:58:33;;;;;;;2.43;1.13;;;25.60;96.80;;;;;;5074637;28;20489;-82
2022/07/31 09:01:07;;;;;;;1.55;1.30;;;25.60;97.80;;;;;;5068043;28;21029;-83
2022/07/31 09:03:35;;;;;;;2.37;1.10;;;25.90;95.20;;;;;;5068835;28;20201;-82
2022/07/31 09:06:04;;;;;;;1.57;1.20;;;26.00;96.00;;;;;;5072085;28;20876;-80
2022/07/31 09:08:33;;;;;;;1.30;1.20;;;26.00;95.40;;;;;;5077702;28;20471;-81
2022/07/31 09:11:05;;;;;;;1.47;1.20;;;26.10;96.20;;;;;;5075956;28;20450;-81
2022/07/31 09:13:35;;;;;;;1.50;1.40;;;26.20;96.10;;;;;;5065501;28;20530;-81
2022/07/31 09:16:04;;;;;;;1.57;1.17;;;26.10;99.90;;;;;;5070520;28;20530;-79
2022/07/31 09:18:32;;;;;;;1.13;1.03;;;26.10;99.90;;;;;;5076454;28;20493;-80
2022/07/31 09:21:02;;;;;;;1.73;1.30;;;26.10;95.00;;;;;;5073377;28;20458;-81
2022/07/31 09:23:31;;;;;;;1.20;1.10;;;26.10;96.20;;;;;;5054412;28;20462;-81
2022/07/31 09:26:01;;;;;;;2.43;1.20;;;26.10;96.10;;;;;;5069342;28;20484;-82
2022/07/31 09:28:36;;;;;;;1.33;1.20;;;26.20;95.70;;;;;;5071788;28;20471;-81
2022/07/31 09:31:07;;;;;;;1.37;1.27;;;26.20;97.10;;;;;;5072581;28;20457;-83
2022/07/31 09:33:37;;;;;;;3.20;1.10;;;26.20;96.00;;;;;;5069997;28;20451;-81
2022/07/31 09:36:12;;;;;;;2.30;1.40;;;26.30;96.10;;;;;;5071927;28;20482;-82
2022/07/31 09:38:42;;;;;;;1.10;1.10;;;26.20;96.90;;;;;;5071779;28;20478;-82
2022/07/31 09:41:11;;;;;;;1.20;1.10;;;26.20;96.00;;;;;;5071386;28;20454;-82
2022/07/31 09:44:02;;;;;;;1.83;1.20;;;26.20;94.60;;;;;;5071321;28;20527;-81
2022/07/31 09:46:40;;;;;;;1.30;1.20;;;26.40;96.00;;;;;;5071817;28;20208;-81
2022/07/31 09:49:09;;;;;;;3.80;1.20;;;26.30;97.40;;;;;;5067665;28;20478;-81
2022/07/31 09:51:41;;;;;;;1.33;1.00;;;26.30;95.90;;;;;;5072924;28;20446;-81
2022/07/31 09:54:20;;;;;;;1.40;1.30;;;26.30;95.00;;;;;;5072586;28;20461;-83
2022/07/31 09:56:49;;;;;;;1.63;1.53;;;26.30;94.00;;;;;;5071422;28;20486;-82
2022/07/31 09:59:19;;;;;;;1.33;1.23;;;26.20;95.80;;;;;;5071832;28;20499;-81
2022/07/31 10:01:48;;;;;;;1.63;1.53;;;26.20;97.00;;;;;;5068159;28;20462;-81
2022/07/31 10:04:17;;;;;;;1.50;1.40;;;26.20;95.30;;;;;;5074747;28;20463;-81
2022/07/31 10:06:48;;;;;;;1.57;1.47;;;26.30;94.90;;;;;;5072556;28;20446;-81
2022/07/31 10:09:18;;;;;;;1.23;1.13;;;26.30;95.10;;;;;;5071244;28;20471;-80
2022/07/31 10:11:49;;;;;;;1.73;1.37;;;26.40;93.40;;;;;;5068638;28;20474;-81
2022/07/31 10:14:23;;;;;;;1.87;1.20;;;26.50;94.10;;;;;;5069804;28;20455;-81
2022/07/31 10:16:56;;;;;;;1.30;1.20;;;26.60;95.00;;;;;;5094435;28;20827;-81
2022/07/31 10:19:27;;;;;;;1.40;1.30;;;26.60;93.50;;;;;;5069520;28;20478;-81
2022/07/31 10:22:00;;;;;;;2.77;1.13;;;26.70;94.90;;;;;;5069481;28;20454;-81
2022/07/31 10:24:32;;;;;;;1.40;1.30;;;26.70;94.20;;;;;;5067139;28;20454;-80
2022/07/31 10:27:00;;;;;;;1.10;1.10;;;26.70;93.90;;;;;;5065981;28;20485;-80
2022/07/31 10:29:39;;;;;;;1.90;1.23;;;26.70;95.70;;;;;;5063819;28;21013;-81
2022/07/31 10:32:08;;;;;;;1.50;1.30;;;26.70;93.90;;;;;;5073811;28;20465;-80
2022/07/31 10:34:37;;;;;;;1.20;1.10;;;26.70;92.70;;;;;;5069574;28;20477;-80
2022/07/31 10:37:16;;;;;;;1.50;1.40;;;26.70;92.70;;;;;;5066724;28;20477;-80
2022/07/31 10:39:56;;;;;;;1.40;1.30;;;26.70;91.60;;;;;;5070136;28;20484;-80
2022/07/31 10:42:36;;;;;;;2.10;1.07;;;26.80;93.40;;;;;;5071500;28;20458;-80
2022/07/31 10:45:07;;;;;;;1.50;1.30;;;26.90;99.90;;;;;;5068960;28;20456;-80
2022/07/31 10:47:35;;;;;;;1.63;1.23;;;26.90;93.00;;;;;;5070999;28;20578;-80
2022/07/31 10:50:05;;;;;;;1.30;1.20;;;27.00;94.20;;;;;;5071441;28;20446;-81
2022/07/31 10:52:36;;;;;;;1.20;1.10;;;27.00;93.10;;;;;;5069920;28;20705;-82
2022/07/31 10:55:15;;;;;;;1.07;1.00;;;27.00;99.90;;;;;;5062885;28;22348;-80
2022/07/31 10:57:43;;;;;;;1.40;1.30;;;27.00;92.40;;;;;;5066604;28;20458;-81
2022/07/31 11:00:28;;;;;;;1.30;1.20;;;26.90;92.00;;;;;;5068673;28;20471;-80
2022/07/31 11:02:57;;;;;;;1.17;1.00;;;26.90;92.50;;;;;;5060353;28;20462;-80
2022/07/31 11:05:26;;;;;;;1.20;1.10;;;26.80;92.50;;;;;;5052091;28;20456;-81
2022/07/31 11:08:01;;;;;;;1.10;1.10;;;26.80;91.60;;;;;;5069054;28;20474;-80
2022/07/31 11:10:30;;;;;;;1.40;1.30;;;26.80;90.60;;;;;;5065849;28;20480;-81
2022/07/31 11:13:03;;;;;;;1.97;1.20;;;26.80;90.80;;;;;;5066678;28;20822;-80
2022/07/31 11:15:36;;;;;;;1.23;1.13;;;26.90;88.80;;;;;;5068728;28;20491;-80
2022/07/31 11:18:12;;;;;;;1.27;1.17;;;26.80;87.40;;;;;;5062187;28;20506;-80
2022/07/31 11:21:00;;;;;;;1.83;1.23;;;26.90;88.80;;;;;;5068505;28;20458;-81
2022/07/31 11:23:44;;;;;;;1.40;1.30;;;26.90;90.10;;;;;;5065707;28;20449;-80
2022/07/31 11:26:30;;;;;;;1.47;1.30;;;26.90;92.40;;;;;;5062798;28;20545;-81
2022/07/31 11:29:09;;;;;;;1.73;1.10;;;27.00;91.20;;;;;;5065901;28;20478;-81
2022/07/31 11:32:01;;;;;;;1.20;1.10;;;27.00;92.70;;;;;;5064435;28;21309;-80
2022/07/31 11:34:29;;;;;;;1.40;1.30;;;27.10;93.10;;;;;;5062743;28;20451;-80
2022/07/31 11:36:57;;;;;;;1.27;1.17;;;27.10;92.10;;;;;;5068716;28;20516;-80
2022/07/31 11:39:27;;;;;;;1.20;1.10;;;27.20;91.90;;;;;;5065224;28;20499;-81
2022/07/31 11:42:04;;;;;;;1.43;1.33;;;27.20;90.90;;;;;;5063341;28;20508;-80
2022/07/31 11:44:35;;;;;;;1.30;1.20;;;27.20;90.90;;;;;;5066659;28;20504;-81
2022/07/31 11:47:04;;;;;;;1.37;1.27;;;27.20;92.00;;;;;;5068395;28;20477;-80
2022/07/31 11:50:01;;;;;;;1.10;1.10;;;27.20;93.50;;;;;;5070334;28;20537;-81
2022/07/31 11:52:29;;;;;;;1.20;1.10;;;27.30;92.70;;;;;;5065872;28;20479;-81
2022/07/31 11:55:05;;;;;;;1.30;1.20;;;27.30;93.90;;;;;;5069392;28;20463;-80
2022/07/31 11:57:36;;;;;;;1.40;1.30;;;27.30;92.70;;;;;;5068331;28;20442;-81
2022/07/31 12:00:20;;;;;;;1.40;1.30;;;27.40;93.70;;;;;;5062881;28;20486;-81
2022/07/31 12:02:57;;;;;;;1.53;1.43;;;27.50;92.70;;;;;;5061041;28;20454;-80
2022/07/31 12:05:26;;;;;;;1.40;1.23;;;27.60;95.10;;;;;;5062631;28;20997;-81
2022/07/31 12:08:07;;;;;;;1.37;1.27;;;27.60;94.90;;;;;;5065966;28;20505;-80
2022/07/31 12:10:37;;;;;;;1.37;1.10;;;27.70;93.00;;;;;;5075456;28;20450;-81
2022/07/31 12:13:05;;;;;;;1.55;1.45;;;27.60;91.70;;;;;;5074543;28;20441;-78
2022/07/31 12:15:34;;;;;;;1.30;1.20;;;27.60;93.20;;;;;;5070258;28;20193;-81
2022/07/31 12:18:05;;;;;;;1.40;1.30;;;27.50;91.60;;;;;;5068328;28;20554;-82
2022/07/31 12:20:34;;;;;;;1.03;1.03;;;27.60;90.40;;;;;;5072160;28;20531;-81
2022/07/31 12:23:05;;;;;;;1.30;1.20;;;27.50;91.20;;;;;;5075171;28;21001;-82
2022/07/31 12:25:54;;;;;;;1.40;1.13;;;27.60;90.40;;;;;;5070340;28;20579;-81
2022/07/31 12:28:22;;;;;;;2.43;1.20;;;27.70;92.60;;;;;;5071301;28;20478;-81
2022/07/31 12:30:59;;;;;;;4.30;1.60;;;27.80;94.70;;;;;;5071714;28;20831;-81
2022/07/31 12:33:39;;;;;;;1.33;1.23;;;27.90;93.60;;;;;;5072206;28;20819;-81
2022/07/31 12:36:13;;;;;;;1.43;1.33;;;27.90;92.30;;;;;;5070821;28;20450;-81
2022/07/31 12:38:42;;;;;;;1.83;1.17;;;27.90;90.10;;;;;;5070810;28;20520;-82
2022/07/31 12:41:15;;;;;;;1.37;1.27;;;27.90;92.20;;;;;;5067930;28;20454;-81
2022/07/31 12:43:44;;;;;;;2.97;1.77;;;27.80;92.60;;;;;;5074761;28;20473;-81
2022/07/31 12:46:23;;;;;;;1.67;1.57;;;27.80;92.10;;;;;;5065140;28;21345;-81
2022/07/31 12:48:52;;;;;;;1.50;1.27;;;27.90;92.80;;;;;;5064055;28;20472;-82
2022/07/31 12:51:21;;;;;;;1.57;1.47;;;27.90;94.50;;;;;;5070283;28;20929;-81
2022/07/31 12:54:10;;;;;;;4.00;1.63;;;28.00;93.70;;;;;;5068173;28;21019;-82
2022/07/31 12:56:39;;;;;;;1.50;1.40;;;28.00;92.30;;;;;;5069608;28;20446;-81
2022/07/31 12:59:09;;;;;;;2.20;1.67;;;28.00;91.60;;;;;;5065103;28;20474;-81
2022/07/31 13:01:38;;;;;;;1.60;1.50;;;28.00;92.60;;;;;;5073957;28;20467;-81
2022/07/31 13:04:08;;;;;;;1.73;1.63;;;28.00;92.60;;;;;;5071239;28;20454;-81
2022/07/31 13:06:49;;;;;;;1.30;1.20;;;28.10;92.80;;;;;;5065076;28;20460;-81
2022/07/31 13:09:19;;;;;;;1.40;1.30;;;28.10;91.50;;;;;;5067187;28;20459;-82